sensor_id;sensor_type;location;lat;lon;timestamp;pressure;altitude;pressure_sealevel;temperature;humidity
54122;BME280;40029;58.708;50.190;2023-05-24T00:02:26;100986.56;;;17.00;37.71
54122;BME280;40029;58.708;50.190;2023-05-24T00:04:57;100994.25;;;17.05;37.46
54122;BME280;40029;58.708;50.190;2023-05-24T00:07:30;100929.88;;;16.72;37.90
54122;BME280;40029;58.708;50.190;2023-05-24T00:10:03;100983.00;;;17.01;38.24
54122;BME280;40029;58.708;50.190;2023-05-24T00:12:35;100944.34;;;16.83;37.79
54122;BME280;40029;58.708;50.190;2023-05-24T00:15:07;100943.56;;;16.81;38.40
54122;BME280;40029;58.708;50.190;2023-05-24T00:17:38;100987.84;;;17.10;38.71
54122;BME280;40029;58.708;50.190;2023-05-24T00:20:13;100973.06;;;17.08;38.62
54122;BME280;40029;58.708;50.190;2023-05-24T00:22:44;100982.16;;;17.19;39.22
54122;BME280;40029;58.708;50.190;2023-05-24T00:25:16;100958.78;;;17.12;39.44
54122;BME280;40029;58.708;50.190;2023-05-24T00:27:47;100960.22;;;17.19;40.23
54122;BME280;40029;58.708;50.190;2023-05-24T00:30:18;100894.25;;;16.84;40.11
54122;BME280;40029;58.708;50.190;2023-05-24T00:33:08;100977.03;;;17.35;40.55
54122;BME280;40029;58.708;50.190;2023-05-24T00:35:39;100963.28;;;17.29;40.54
54122;BME280;40029;58.708;50.190;2023-05-24T00:38:10;100961.56;;;17.28;40.57
54122;BME280;40029;58.708;50.190;2023-05-24T00:40:41;100966.72;;;17.31;41.28
54122;BME280;40029;58.708;50.190;2023-05-24T00:43:13;100969.22;;;17.34;41.71
54122;BME280;40029;58.708;50.190;2023-05-24T00:45:44;100967.47;;;17.33;41.08
54122;BME280;40029;58.708;50.190;2023-05-24T00:48:15;100981.00;;;17.44;41.03
54122;BME280;40029;58.708;50.190;2023-05-24T00:50:46;100953.75;;;17.26;41.07
54122;BME280;40029;58.708;50.190;2023-05-24T00:53:18;100936.47;;;17.20;41.05
54122;BME280;40029;58.708;50.190;2023-05-24T00:55:50;100968.78;;;17.43;40.68
54122;BME280;40029;58.708;50.190;2023-05-24T00:58:21;100929.25;;;17.24;40.76
54122;BME280;40029;58.708;50.190;2023-05-24T01:01:15;100971.81;;;17.53;41.13
54122;BME280;40029;58.708;50.190;2023-05-24T01:03:47;100931.66;;;17.29;40.76
54122;BME280;40029;58.708;50.190;2023-05-24T01:06:18;100937.66;;;17.32;41.12
54122;BME280;40029;58.708;50.190;2023-05-24T01:11:53;100985.34;;;17.64;41.62
54122;BME280;40029;58.708;50.190;2023-05-24T01:20:11;100983.06;;;17.56;41.08
54122;BME280;40029;58.708;50.190;2023-05-24T01:28:35;100961.53;;;17.65;40.00
54122;BME280;40029;58.708;50.190;2023-05-24T01:31:06;100927.38;;;17.45;40.28
54122;BME280;40029;58.708;50.190;2023-05-24T01:33:42;100937.69;;;17.68;40.23
54122;BME280;40029;58.708;50.190;2023-05-24T01:36:13;100954.53;;;17.83;40.37
54122;BME280;40029;58.708;50.190;2023-05-24T01:38:45;100934.38;;;17.82;40.03
54122;BME280;40029;58.708;50.190;2023-05-24T01:47:01;100931.06;;;18.13;40.17
54122;BME280;40029;58.708;50.190;2023-05-24T01:49:38;100931.38;;;18.24;40.21
54122;BME280;40029;58.708;50.190;2023-05-24T01:52:11;100970.44;;;18.51;40.54
54122;BME280;40029;58.708;50.190;2023-05-24T01:54:47;100975.34;;;18.59;40.53
54122;BME280;40029;58.708;50.190;2023-05-24T01:57:22;100968.88;;;18.64;40.20
54122;BME280;40029;58.708;50.190;2023-05-24T01:59:55;100948.84;;;18.60;40.10
54122;BME280;40029;58.708;50.190;2023-05-24T02:02:28;100947.50;;;18.69;40.09
54122;BME280;40029;58.708;50.190;2023-05-24T02:04:59;100957.22;;;18.86;40.01
54122;BME280;40029;58.708;50.190;2023-05-24T02:07:31;100960.22;;;18.95;39.73
54122;BME280;40029;58.708;50.190;2023-05-24T02:10:02;100959.03;;;19.01;39.70
54122;BME280;40029;58.708;50.190;2023-05-24T02:12:52;100925.22;;;18.92;39.54
54122;BME280;40029;58.708;50.190;2023-05-24T02:15:24;100967.75;;;19.19;39.28
54122;BME280;40029;58.708;50.190;2023-05-24T02:17:56;100962.75;;;19.30;39.34
54122;BME280;40029;58.708;50.190;2023-05-24T02:20:47;100925.47;;;19.19;38.77
54122;BME280;40029;58.708;50.190;2023-05-24T02:23:19;100934.41;;;19.32;38.88
54122;BME280;40029;58.708;50.190;2023-05-24T02:25:51;100928.22;;;19.33;38.88
54122;BME280;40029;58.708;50.190;2023-05-24T02:28:22;100927.69;;;19.42;38.70
54122;BME280;40029;58.708;50.190;2023-05-24T02:30:53;100936.53;;;19.57;38.61
54122;BME280;40029;58.708;50.190;2023-05-24T02:33:24;100931.69;;;19.65;38.62
54122;BME280;40029;58.708;50.190;2023-05-24T02:35:56;100936.47;;;19.75;38.29
54122;BME280;40029;58.708;50.190;2023-05-24T02:38:27;100897.66;;;19.59;37.93
54122;BME280;40029;58.708;50.190;2023-05-24T02:40:59;100919.97;;;19.85;37.56
54122;BME280;40029;58.708;50.190;2023-05-24T02:43:30;100969.13;;;20.19;37.46
54122;BME280;40029;58.708;50.190;2023-05-24T02:46:01;100933.34;;;19.98;37.40
54122;BME280;40029;58.708;50.190;2023-05-24T02:48:33;100951.53;;;20.18;37.38
54122;BME280;40029;58.708;50.190;2023-05-24T02:51:05;100929.97;;;20.10;37.41
54122;BME280;40029;58.708;50.190;2023-05-24T02:53:36;100927.13;;;20.13;37.37
54122;BME280;40029;58.708;50.190;2023-05-24T02:56:07;100927.34;;;20.25;37.35
54122;BME280;40029;58.708;50.190;2023-05-24T02:58:40;100941.38;;;20.41;37.15
54122;BME280;40029;58.708;50.190;2023-05-24T03:01:11;100968.19;;;20.65;36.24
54122;BME280;40029;58.708;50.190;2023-05-24T03:03:42;100928.44;;;20.51;36.10
54122;BME280;40029;58.708;50.190;2023-05-24T03:06:14;100960.16;;;20.81;35.86
54122;BME280;40029;58.708;50.190;2023-05-24T03:08:45;100932.91;;;20.79;35.32
54122;BME280;40029;58.708;50.190;2023-05-24T03:11:17;100939.63;;;20.99;34.79
54122;BME280;40029;58.708;50.190;2023-05-24T03:13:52;100917.84;;;21.08;34.11
54122;BME280;40029;58.708;50.190;2023-05-24T03:16:24;100959.72;;;21.44;33.36
54122;BME280;40029;58.708;50.190;2023-05-24T03:18:56;100922.81;;;21.41;32.86
54122;BME280;40029;58.708;50.190;2023-05-24T03:21:28;100959.13;;;21.80;32.23
54122;BME280;40029;58.708;50.190;2023-05-24T03:24:00;100963.09;;;22.00;31.63
54122;BME280;40029;58.708;50.190;2023-05-24T03:26:32;100922.03;;;21.93;30.64
54122;BME280;40029;58.708;50.190;2023-05-24T03:29:03;100964.59;;;22.31;29.92
54122;BME280;40029;58.708;50.190;2023-05-24T03:31:40;100967.16;;;22.45;29.20
54122;BME280;40029;58.708;50.190;2023-05-24T03:34:11;100956.00;;;22.66;27.65
54122;BME280;40029;58.708;50.190;2023-05-24T03:37:01;100942.28;;;22.72;26.45
54122;BME280;40029;58.708;50.190;2023-05-24T03:39:32;100963.97;;;23.04;25.47
54122;BME280;40029;58.708;50.190;2023-05-24T03:42:17;100954.16;;;23.54;24.14
54122;BME280;40029;58.708;50.190;2023-05-24T03:44:49;100927.63;;;23.29;24.25
54122;BME280;40029;58.708;50.190;2023-05-24T03:47:20;100961.78;;;23.59;23.69
54122;BME280;40029;58.708;50.190;2023-05-24T03:50:10;100888.63;;;23.40;23.52
54122;BME280;40029;58.708;50.190;2023-05-24T03:52:41;100949.50;;;23.93;23.04
54122;BME280;40029;58.708;50.190;2023-05-24T03:55:12;100948.81;;;24.02;22.89
54122;BME280;40029;58.708;50.190;2023-05-24T03:58:03;100932.34;;;24.08;22.65
54122;BME280;40029;58.708;50.190;2023-05-24T04:00:52;100948.22;;;24.45;22.73
54122;BME280;40029;58.708;50.190;2023-05-24T04:03:24;100955.03;;;24.60;22.53
54122;BME280;40029;58.708;50.190;2023-05-24T04:05:55;100957.81;;;24.70;22.11
54122;BME280;40029;58.708;50.190;2023-05-24T04:08:26;100953.22;;;24.83;21.71
54122;BME280;40029;58.708;50.190;2023-05-24T04:10:58;100929.22;;;24.83;21.76
54122;BME280;40029;58.708;50.190;2023-05-24T04:13:29;100949.94;;;25.13;21.36
54122;BME280;40029;58.708;50.190;2023-05-24T04:16:00;100918.44;;;25.07;21.14
54122;BME280;40029;58.708;50.190;2023-05-24T04:18:31;100945.44;;;25.36;20.38
54122;BME280;40029;58.708;50.190;2023-05-24T04:21:03;100954.38;;;25.47;20.06
54122;BME280;40029;58.708;50.190;2023-05-24T04:23:34;100913.66;;;25.33;19.80
54122;BME280;40029;58.708;50.190;2023-05-24T04:26:05;100904.91;;;25.42;19.36
54122;BME280;40029;58.708;50.190;2023-05-24T04:28:37;100909.84;;;25.58;18.74
54122;BME280;40029;58.708;50.190;2023-05-24T04:31:09;100937.53;;;25.78;18.88
54122;BME280;40029;58.708;50.190;2023-05-24T04:33:40;100942.25;;;25.86;18.65
54122;BME280;40029;58.708;50.190;2023-05-24T04:36:12;100935.09;;;25.86;18.89
54122;BME280;40029;58.708;50.190;2023-05-24T04:38:43;100939.78;;;25.94;19.09
54122;BME280;40029;58.708;50.190;2023-05-24T04:41:16;100910.94;;;25.88;18.15
54122;BME280;40029;58.708;50.190;2023-05-24T04:43:47;100941.63;;;26.14;17.95
54122;BME280;40029;58.708;50.190;2023-05-24T04:46:18;100905.13;;;26.04;17.93
54122;BME280;40029;58.708;50.190;2023-05-24T04:48:49;100948.06;;;26.33;17.25
54122;BME280;40029;58.708;50.190;2023-05-24T04:51:21;100902.25;;;26.16;17.26
54122;BME280;40029;58.708;50.190;2023-05-24T04:53:52;100950.22;;;26.39;16.75
54122;BME280;40029;58.708;50.190;2023-05-24T04:56:24;100951.66;;;26.43;16.54
54122;BME280;40029;58.708;50.190;2023-05-24T04:58:55;100954.09;;;26.46;16.67
54122;BME280;40029;58.708;50.190;2023-05-24T05:01:26;100933.28;;;26.50;16.68
54122;BME280;40029;58.708;50.190;2023-05-24T05:03:58;100959.81;;;26.62;16.29
54122;BME280;40029;58.708;50.190;2023-05-24T05:06:30;100945.25;;;26.76;16.10
54122;BME280;40029;58.708;50.190;2023-05-24T05:09:01;100957.00;;;26.95;16.09
54122;BME280;40029;58.708;50.190;2023-05-24T05:11:32;100916.16;;;26.92;15.75
54122;BME280;40029;58.708;50.190;2023-05-24T05:14:04;100920.84;;;27.00;15.86
54122;BME280;40029;58.708;50.190;2023-05-24T05:16:36;100933.41;;;27.09;15.46
54122;BME280;40029;58.708;50.190;2023-05-24T05:19:08;100946.97;;;27.17;16.17
54122;BME280;40029;58.708;50.190;2023-05-24T05:21:39;100917.91;;;27.03;15.95
54122;BME280;40029;58.708;50.190;2023-05-24T05:24:10;100948.28;;;27.33;15.90
54122;BME280;40029;58.708;50.190;2023-05-24T05:26:41;100921.09;;;27.28;15.70
54122;BME280;40029;58.708;50.190;2023-05-24T05:29:12;100941.69;;;27.56;15.57
54122;BME280;40029;58.708;50.190;2023-05-24T05:31:43;100844.41;;;27.07;15.67
54122;BME280;40029;58.708;50.190;2023-05-24T05:34:14;100910.28;;;27.58;15.43
54122;BME280;40029;58.708;50.190;2023-05-24T05:36:45;100938.78;;;27.79;15.15
54122;BME280;40029;58.708;50.190;2023-05-24T05:39:17;100942.56;;;27.86;14.99
54122;BME280;40029;58.708;50.190;2023-05-24T05:41:48;100938.75;;;27.88;14.98
54122;BME280;40029;58.708;50.190;2023-05-24T05:44:19;100880.53;;;27.61;15.38
54122;BME280;40029;58.708;50.190;2023-05-24T05:46:50;100943.13;;;28.09;15.16
54122;BME280;40029;58.708;50.190;2023-05-24T05:49:21;100915.75;;;28.05;15.00
54122;BME280;40029;58.708;50.190;2023-05-24T05:51:52;100884.34;;;27.88;14.26
54122;BME280;40029;58.708;50.190;2023-05-24T05:54:24;100918.31;;;28.17;14.49
54122;BME280;40029;58.708;50.190;2023-05-24T05:57:15;100938.00;;;28.35;14.37
54122;BME280;40029;58.708;50.190;2023-05-24T05:59:49;100944.63;;;28.40;13.82
54122;BME280;40029;58.708;50.190;2023-05-24T06:02:20;100899.75;;;28.33;13.83
54122;BME280;40029;58.708;50.190;2023-05-24T06:04:52;100940.31;;;28.67;13.75
54122;BME280;40029;58.708;50.190;2023-05-24T06:07:24;100937.91;;;28.74;13.56
54122;BME280;40029;58.708;50.190;2023-05-24T06:09:55;100921.81;;;28.74;13.75
54122;BME280;40029;58.708;50.190;2023-05-24T06:12:26;100937.66;;;28.95;13.76
54122;BME280;40029;58.708;50.190;2023-05-24T06:14:57;100902.13;;;28.83;13.55
54122;BME280;40029;58.708;50.190;2023-05-24T06:17:29;100904.06;;;28.90;13.15
54122;BME280;40029;58.708;50.190;2023-05-24T06:20:00;100900.94;;;28.95;13.20
54122;BME280;40029;58.708;50.190;2023-05-24T06:22:39;100888.34;;;29.05;12.94
54122;BME280;40029;58.708;50.190;2023-05-24T06:25:12;100915.75;;;29.27;12.77
54122;BME280;40029;58.708;50.190;2023-05-24T06:27:45;100928.38;;;29.44;12.29
54122;BME280;40029;58.708;50.190;2023-05-24T06:30:17;100914.22;;;29.42;11.87
54122;BME280;40029;58.708;50.190;2023-05-24T06:33:06;100931.69;;;29.56;11.73
54122;BME280;40029;58.708;50.190;2023-05-24T06:35:37;100925.91;;;29.69;11.64
54122;BME280;40029;58.708;50.190;2023-05-24T06:38:09;100915.13;;;29.78;11.36
54122;BME280;40029;58.708;50.190;2023-05-24T06:40:40;100927.81;;;29.94;11.42
54122;BME280;40029;58.708;50.190;2023-05-24T06:43:11;100909.72;;;29.96;11.60
54122;BME280;40029;58.708;50.190;2023-05-24T06:45:45;100894.91;;;29.92;11.00
54122;BME280;40029;58.708;50.190;2023-05-24T06:48:16;100903.97;;;29.91;10.79
54122;BME280;40029;58.708;50.190;2023-05-24T06:50:48;100919.56;;;30.13;11.27
54122;BME280;40029;58.708;50.190;2023-05-24T06:53:19;100922.41;;;30.30;11.10
54122;BME280;40029;58.708;50.190;2023-05-24T06:55:50;100895.03;;;30.08;11.14
54122;BME280;40029;58.708;50.190;2023-05-24T06:58:21;100900.41;;;30.08;11.47
54122;BME280;40029;58.708;50.190;2023-05-24T07:00:52;100900.94;;;30.12;11.47
54122;BME280;40029;58.708;50.190;2023-05-24T07:03:24;100925.94;;;30.30;11.05
54122;BME280;40029;58.708;50.190;2023-05-24T07:05:56;100888.34;;;30.12;10.83
54122;BME280;40029;58.708;50.190;2023-05-24T07:08:46;100905.03;;;30.24;10.85
54122;BME280;40029;58.708;50.190;2023-05-24T07:11:17;100928.91;;;30.53;10.73
54122;BME280;40029;58.708;50.190;2023-05-24T07:13:48;100901.03;;;30.54;10.59
54122;BME280;40029;58.708;50.190;2023-05-24T07:16:20;100917.16;;;30.80;10.71
54122;BME280;40029;58.708;50.190;2023-05-24T07:18:51;100890.34;;;30.71;10.24
54122;BME280;40029;58.708;50.190;2023-05-24T07:21:22;100917.38;;;30.95;10.27
54122;BME280;40029;58.708;50.190;2023-05-24T07:23:54;100884.75;;;30.90;10.04
54122;BME280;40029;58.708;50.190;2023-05-24T07:26:43;100913.38;;;31.07;10.32
54122;BME280;40029;58.708;50.190;2023-05-24T07:29:14;100849.97;;;30.71;9.49
54122;BME280;40029;58.708;50.190;2023-05-24T07:31:46;100883.94;;;31.06;8.73
54122;BME280;40029;58.708;50.190;2023-05-24T07:34:18;100900.63;;;31.26;9.22
54122;BME280;40029;58.708;50.190;2023-05-24T07:36:51;100877.41;;;31.17;8.39
54122;BME280;40029;58.708;50.190;2023-05-24T07:39:22;100870.50;;;31.14;8.00
54122;BME280;40029;58.708;50.190;2023-05-24T07:41:55;100864.41;;;31.04;6.74
54122;BME280;40029;58.708;50.190;2023-05-24T07:44:44;100895.94;;;31.28;6.92
54122;BME280;40029;58.708;50.190;2023-05-24T07:47:36;100894.56;;;31.16;6.88
54122;BME280;40029;58.708;50.190;2023-05-24T07:50:08;100890.50;;;31.11;7.96
54122;BME280;40029;58.708;50.190;2023-05-24T07:52:39;100857.81;;;30.90;7.27
54122;BME280;40029;58.708;50.190;2023-05-24T07:55:10;100890.19;;;31.15;6.21
54122;BME280;40029;58.708;50.190;2023-05-24T07:57:41;100884.66;;;31.24;6.36
54122;BME280;40029;58.708;50.190;2023-05-24T08:00:13;100867.16;;;31.20;5.69
54122;BME280;40029;58.708;50.190;2023-05-24T08:02:44;100880.50;;;31.46;5.74
54122;BME280;40029;58.708;50.190;2023-05-24T08:05:18;100862.16;;;31.42;5.39
54122;BME280;40029;58.708;50.190;2023-05-24T08:07:50;100862.69;;;31.61;5.52
54122;BME280;40029;58.708;50.190;2023-05-24T08:10:22;100843.31;;;31.42;4.80
54122;BME280;40029;58.708;50.190;2023-05-24T08:12:55;100875.78;;;31.65;4.77
54122;BME280;40029;58.708;50.190;2023-05-24T08:15:44;100845.47;;;31.38;4.29
54122;BME280;40029;58.708;50.190;2023-05-24T08:18:15;100836.91;;;31.59;3.92
54122;BME280;40029;58.708;50.190;2023-05-24T08:20:47;100845.81;;;31.68;3.70
54122;BME280;40029;58.708;50.190;2023-05-24T08:23:18;100869.75;;;31.95;4.20
54122;BME280;40029;58.708;50.190;2023-05-24T08:25:49;100873.09;;;32.05;4.18
54122;BME280;40029;58.708;50.190;2023-05-24T08:28:20;100861.78;;;32.10;3.98
54122;BME280;40029;58.708;50.190;2023-05-24T08:30:51;100872.72;;;32.25;3.50
54122;BME280;40029;58.708;50.190;2023-05-24T08:33:22;100833.69;;;31.96;3.20
54122;BME280;40029;58.708;50.190;2023-05-24T08:35:54;100840.75;;;31.97;3.38
54122;BME280;40029;58.708;50.190;2023-05-24T08:38:44;100855.22;;;32.13;3.41
54122;BME280;40029;58.708;50.190;2023-05-24T08:41:15;100860.31;;;31.91;3.01
54122;BME280;40029;58.708;50.190;2023-05-24T08:43:46;100863.13;;;32.14;3.37
54122;BME280;40029;58.708;50.190;2023-05-24T08:46:37;100854.72;;;32.09;3.35
54122;BME280;40029;58.708;50.190;2023-05-24T08:49:27;100855.03;;;32.22;3.43
54122;BME280;40029;58.708;50.190;2023-05-24T08:51:59;100831.47;;;32.16;3.07
54122;BME280;40029;58.708;50.190;2023-05-24T08:54:36;100849.63;;;32.22;2.86
54122;BME280;40029;58.708;50.190;2023-05-24T08:57:26;100845.41;;;32.28;3.58
54122;BME280;40029;58.708;50.190;2023-05-24T08:59:57;100850.94;;;32.51;2.95
54122;BME280;40029;58.708;50.190;2023-05-24T09:02:29;100796.97;;;32.03;2.96
54122;BME280;40029;58.708;50.190;2023-05-24T09:05:01;100803.19;;;32.04;3.10
54122;BME280;40029;58.708;50.190;2023-05-24T09:07:35;100847.22;;;32.35;2.94
54122;BME280;40029;58.708;50.190;2023-05-24T09:10:08;100844.06;;;32.24;2.35
54122;BME280;40029;58.708;50.190;2023-05-24T09:12:46;100865.25;;;32.51;1.69
54122;BME280;40029;58.708;50.190;2023-05-24T09:15:20;100824.50;;;32.30;1.93
54122;BME280;40029;58.708;50.190;2023-05-24T09:17:52;100829.44;;;32.10;2.91
54122;BME280;40029;58.708;50.190;2023-05-24T09:20:23;100863.59;;;32.34;2.73
54122;BME280;40029;58.708;50.190;2023-05-24T09:22:55;100828.44;;;32.03;2.79
54122;BME280;40029;58.708;50.190;2023-05-24T09:25:27;100835.53;;;32.12;3.67
54122;BME280;40029;58.708;50.190;2023-05-24T09:28:05;100849.09;;;32.35;2.88
54122;BME280;40029;58.708;50.190;2023-05-24T09:30:37;100826.50;;;32.36;2.95
54122;BME280;40029;58.708;50.190;2023-05-24T09:33:31;100815.22;;;32.41;3.46
54122;BME280;40029;58.708;50.190;2023-05-24T09:36:04;100814.38;;;32.40;3.24
54122;BME280;40029;58.708;50.190;2023-05-24T09:38:36;100815.91;;;32.26;2.31
54122;BME280;40029;58.708;50.190;2023-05-24T09:41:07;100808.66;;;32.27;2.38
54122;BME280;40029;58.708;50.190;2023-05-24T09:43:47;100836.22;;;32.53;2.61
54122;BME280;40029;58.708;50.190;2023-05-24T09:46:21;100809.66;;;32.42;2.73
54122;BME280;40029;58.708;50.190;2023-05-24T09:49:00;100815.13;;;32.57;3.06
54122;BME280;40029;58.708;50.190;2023-05-24T09:51:37;100837.03;;;33.01;2.99
54122;BME280;40029;58.708;50.190;2023-05-24T09:54:09;100781.16;;;32.71;3.17
54122;BME280;40029;58.708;50.190;2023-05-24T09:57:01;100826.59;;;33.21;2.77
54122;BME280;40029;58.708;50.190;2023-05-24T09:59:52;100830.81;;;33.47;2.02
54122;BME280;40029;58.708;50.190;2023-05-24T10:02:24;100833.28;;;33.56;2.38
54122;BME280;40029;58.708;50.190;2023-05-24T10:04:58;100841.66;;;33.62;2.19
54122;BME280;40029;58.708;50.190;2023-05-24T10:07:32;100824.50;;;33.54;2.55
54122;BME280;40029;58.708;50.190;2023-05-24T10:10:29;100804.75;;;33.54;2.28
54122;BME280;40029;58.708;50.190;2023-05-24T10:13:01;100821.56;;;33.79;2.27
54122;BME280;40029;58.708;50.190;2023-05-24T10:15:33;100798.38;;;33.47;2.31
54122;BME280;40029;58.708;50.190;2023-05-24T10:18:22;100805.03;;;33.59;2.36
54122;BME280;40029;58.708;50.190;2023-05-24T10:20:57;100824.53;;;33.69;2.26
54122;BME280;40029;58.708;50.190;2023-05-24T10:23:30;100813.09;;;33.44;2.75
54122;BME280;40029;58.708;50.190;2023-05-24T10:26:04;100794.41;;;33.12;2.41
54122;BME280;40029;58.708;50.190;2023-05-24T10:28:42;100809.78;;;33.57;2.52
54122;BME280;40029;58.708;50.190;2023-05-24T10:31:36;100819.31;;;33.68;2.90
54122;BME280;40029;58.708;50.190;2023-05-24T10:34:09;100790.78;;;33.42;3.36
54122;BME280;40029;58.708;50.190;2023-05-24T10:36:41;100793.50;;;33.65;3.17
54122;BME280;40029;58.708;50.190;2023-05-24T10:39:14;100818.00;;;33.64;3.11
54122;BME280;40029;58.708;50.190;2023-05-24T10:42:04;100800.09;;;33.48;3.39
54122;BME280;40029;58.708;50.190;2023-05-24T10:44:36;100794.59;;;33.56;3.00
54122;BME280;40029;58.708;50.190;2023-05-24T10:47:09;100811.03;;;33.69;3.62
54122;BME280;40029;58.708;50.190;2023-05-24T10:49:51;100781.75;;;33.73;3.29
54122;BME280;40029;58.708;50.190;2023-05-24T10:52:34;100807.22;;;33.93;3.18
54122;BME280;40029;58.708;50.190;2023-05-24T10:55:07;100815.28;;;34.01;2.75
54122;BME280;40029;58.708;50.190;2023-05-24T10:57:40;100809.63;;;33.88;2.61
54122;BME280;40029;58.708;50.190;2023-05-24T11:00:32;100775.50;;;33.72;2.66
54122;BME280;40029;58.708;50.190;2023-05-24T11:03:09;100803.50;;;33.94;3.02
54122;BME280;40029;58.708;50.190;2023-05-24T11:08:40;100803.81;;;33.99;3.46
54122;BME280;40029;58.708;50.190;2023-05-24T11:11:13;100800.06;;;34.00;3.57
54122;BME280;40029;58.708;50.190;2023-05-24T11:13:54;100779.69;;;33.90;3.37
54122;BME280;40029;58.708;50.190;2023-05-24T11:16:45;100754.91;;;33.71;3.29
54122;BME280;40029;58.708;50.190;2023-05-24T11:19:44;100764.16;;;33.92;3.55
54122;BME280;40029;58.708;50.190;2023-05-24T11:22:15;100777.41;;;33.87;2.80
54122;BME280;40029;58.708;50.190;2023-05-24T11:24:47;100797.81;;;34.19;2.53
54122;BME280;40029;58.708;50.190;2023-05-24T11:27:18;100763.88;;;34.31;1.84
54122;BME280;40029;58.708;50.190;2023-05-24T11:30:09;100771.56;;;35.00;1.95
54122;BME280;40029;58.708;50.190;2023-05-24T11:32:46;100754.81;;;35.61;1.51
54122;BME280;40029;58.708;50.190;2023-05-24T11:35:18;100764.75;;;36.23;1.22
54122;BME280;40029;58.708;50.190;2023-05-24T11:37:50;100767.78;;;37.36;0.63
54122;BME280;40029;58.708;50.190;2023-05-24T11:40:21;100762.50;;;37.81;0.50
54122;BME280;40029;58.708;50.190;2023-05-24T11:42:54;100742.97;;;38.17;0.00
54122;BME280;40029;58.708;50.190;2023-05-24T11:45:28;100745.06;;;38.60;0.00
54122;BME280;40029;58.708;50.190;2023-05-24T11:48:03;100762.78;;;39.39;0.00
54122;BME280;40029;58.708;50.190;2023-05-24T11:50:44;100763.38;;;39.41;0.00
54122;BME280;40029;58.708;50.190;2023-05-24T11:53:18;100743.94;;;39.06;0.00
54122;BME280;40029;58.708;50.190;2023-05-24T11:55:52;100736.00;;;39.29;0.00
54122;BME280;40029;58.708;50.190;2023-05-24T11:58:31;100731.69;;;39.65;0.00
54122;BME280;40029;58.708;50.190;2023-05-24T12:01:26;100754.91;;;39.92;0.00
54122;BME280;40029;58.708;50.190;2023-05-24T12:03:58;100755.13;;;39.72;0.00
54122;BME280;40029;58.708;50.190;2023-05-24T12:06:37;100741.78;;;40.01;0.00
54122;BME280;40029;58.708;50.190;2023-05-24T12:09:10;100745.19;;;39.78;0.00
54122;BME280;40029;58.708;50.190;2023-05-24T12:12:01;100732.31;;;39.85;0.00
54122;BME280;40029;58.708;50.190;2023-05-24T12:14:34;100723.47;;;39.90;0.00
54122;BME280;40029;58.708;50.190;2023-05-24T12:17:13;100709.78;;;39.71;0.00
54122;BME280;40029;58.708;50.190;2023-05-24T12:19:48;100735.81;;;39.74;0.00
54122;BME280;40029;58.708;50.190;2023-05-24T12:22:26;100714.59;;;39.94;0.00
54122;BME280;40029;58.708;50.190;2023-05-24T12:25:22;100713.50;;;40.32;0.00
54122;BME280;40029;58.708;50.190;2023-05-24T12:27:56;100735.53;;;40.49;0.00
54122;BME280;40029;58.708;50.190;2023-05-24T12:30:28;100721.94;;;40.42;0.00
54122;BME280;40029;58.708;50.190;2023-05-24T12:33:00;100696.78;;;40.52;0.00
54122;BME280;40029;58.708;50.190;2023-05-24T12:35:31;100724.09;;;40.70;0.00
54122;BME280;40029;58.708;50.190;2023-05-24T12:38:02;100717.81;;;40.82;0.00
54122;BME280;40029;58.708;50.190;2023-05-24T12:40:33;100719.47;;;40.71;0.00
54122;BME280;40029;58.708;50.190;2023-05-24T12:43:05;100714.56;;;40.73;0.00
54122;BME280;40029;58.708;50.190;2023-05-24T12:45:36;100707.91;;;40.39;0.00
54122;BME280;40029;58.708;50.190;2023-05-24T12:48:07;100710.09;;;40.00;0.00
54122;BME280;40029;58.708;50.190;2023-05-24T12:50:38;100697.53;;;39.37;0.00
54122;BME280;40029;58.708;50.190;2023-05-24T12:53:10;100674.28;;;38.91;0.00
54122;BME280;40029;58.708;50.190;2023-05-24T12:55:41;100708.53;;;39.06;0.00
54122;BME280;40029;58.708;50.190;2023-05-24T12:58:12;100674.56;;;38.83;0.00
54122;BME280;40029;58.708;50.190;2023-05-24T13:00:46;100675.25;;;38.97;0.00
54122;BME280;40029;58.708;50.190;2023-05-24T13:03:19;100665.50;;;38.83;0.00
54122;BME280;40029;58.708;50.190;2023-05-24T13:05:51;100670.63;;;38.97;0.00
54122;BME280;40029;58.708;50.190;2023-05-24T13:08:22;100639.69;;;38.92;0.00
54122;BME280;40029;58.708;50.190;2023-05-24T13:10:53;100669.63;;;39.17;0.00
54122;BME280;40029;58.708;50.190;2023-05-24T13:13:42;100667.50;;;39.19;0.00
54122;BME280;40029;58.708;50.190;2023-05-24T13:16:17;100697.72;;;39.61;0.00
54122;BME280;40029;58.708;50.190;2023-05-24T13:18:49;100669.25;;;39.13;0.00
54122;BME280;40029;58.708;50.190;2023-05-24T13:21:39;100666.19;;;39.46;0.00
54122;BME280;40029;58.708;50.190;2023-05-24T13:24:13;100668.03;;;39.71;0.00
54122;BME280;40029;58.708;50.190;2023-05-24T13:27:03;100666.38;;;39.70;0.00
54122;BME280;40029;58.708;50.190;2023-05-24T13:29:35;100674.53;;;39.88;0.00
54122;BME280;40029;58.708;50.190;2023-05-24T13:32:06;100657.88;;;39.60;0.00
54122;BME280;40029;58.708;50.190;2023-05-24T13:34:37;100658.09;;;39.58;0.00
54122;BME280;40029;58.708;50.190;2023-05-24T13:37:09;100680.22;;;39.50;0.00
54122;BME280;40029;58.708;50.190;2023-05-24T13:39:41;100685.13;;;39.41;0.00
54122;BME280;40029;58.708;50.190;2023-05-24T13:42:12;100657.28;;;39.14;0.00
54122;BME280;40029;58.708;50.190;2023-05-24T13:44:44;100676.50;;;39.19;0.00
54122;BME280;40029;58.708;50.190;2023-05-24T13:47:15;100676.50;;;39.26;0.00